Архив погоды в Досанге

Метеограмма Досанг
Среда, 17 Октября
Время местн. Темп Ветер Видим Явления Облачность нижн/средн/верх Атм. давл. Влжн Точка росы ВНГО R Сост. почвы Tg s
Напр Скр Прв ур.ст ур.м изм
12:00 +17.5° Ю,Ю-З 3 - 20 км облака рассеиваются {туман} облачно 773 771 -0.8 63% +10.4° более 2.5 км - - - -
09:00 +11.3° Ю-З 1 - 0.2 км туман неба не видно 774 772 +0.2 95% +10.5° - - - - -
06:00 +6.4° Ю,Ю-З 2 - 2 км дымка переменная облачность 773 772 +0.2 94% +5.5° 600 м - Влажная (без луж) - -
03:00 +8.4° Ю,Ю-З 2 - 10 км - ясно 773 771 -0.2 91% +7° более 2.5 км - - - -
00:00 +12° Ю 2 - 10 км - облачно 773 772 -0.2 75% +7.8° - - - - -
Вторник, 16 Октября
Время местн. Темп Ветер Видим Явления Облачность нижн/средн/верх Атм. давл. Влжн Точка росы ВНГО R Сост. почвы Tg s
Напр Скр Прв ур.ст ур.м изм
21:00 +12° Ю,Ю-З 2 - 10 км - преимущественно облачно 773 772 +0.4 75% +7.7° 1 км - - - -
18:00 +14.1° штиль 0 - 10 км - преимущественно облачно 773 771 0 70% +8.7° 1 км - - - -
15:00 +17.1° С,С-З 2 - 20 км - переменная облачность 773 771 -0.4 52% +7.2° 1 км - - - -
12:00 +15.1° С 2 - 20 км - переменная облачность 773 772 -0.2 61% +7.7° 1 км - - - -
09:00 +12° В,С-В 1 - 20 км - переменная облачность 774 772 +0.8 73% +7.3° 1 км - - - -
06:00 +3.6° С,С-В 1 - 4 км дымка ясно 773 771 +0.4 95% +2.9° более 2.5 км - Влажная (без луж) - -
03:00 +5.7° С-В 2 - 4 км дымка ясно 772 771 +0.5 94% +4.8° более 2.5 км - - - -
00:00 +8.9° Ю-В 3 - 10 км - облачно 772 770 -0.1 92% +7.6° более 2.5 км - - - -
Понедельник, 15 Октября
Время местн. Темп Ветер Видим Явления Облачность нижн/средн/верх Атм. давл. Влжн Точка росы ВНГО R Сост. почвы Tg s
Напр Скр Прв ур.ст ур.м изм
21:00 +9.3° В,Ю-В 3 - 10 км облака развиваются {дождь} облачно 772 770 +0.7 90% +7.8° - - - - -
18:00 +9.1° Ю-В 3 - 4 км дымка {дождь} облачно 771 770 -0.1 93% +8.1° 600 м - - - -
15:00 +8.6° Ю 2 - 2 км слабый непрерывный дождь облачно 771 770 -0.5 93% +7.5° 600 м - - - -
12:00 +8.8° Ю 2 - 10 км слабый непрерывный дождь облачно 772 770 +0.1 84% +6.2° 600 м - - - -
09:00 +8.6° Ю,Ю-В 2 - 20 км - облачно 772 770 +1 58% +0.7° - - - - -
06:00 +7.3° В,Ю-В 2 - 10 км - облачно 771 769 +0.2 64% +0.9° - - Сухая (без трещин) - -
03:00 +7.3° С,С-В 1 - 10 км - облачно 771 769 +0.2 70% +2.3° - - - - -
00:00 +9.5° С-В 2 - 10 км - облачно 770 769 +0.5 61% +2.4° - - - - -
Воскресенье, 14 Октября
Время местн. Темп Ветер Видим Явления Облачность нижн/средн/верх Атм. давл. Влжн Точка росы ВНГО R Сост. почвы Tg s
Напр Скр Прв ур.ст ур.м изм
21:00 +12.1° С 3 - 10 км - облачно 770 768 +1 64% +5.5° - - - - -
18:00 +13.7° С 4 - 10 км - облачно 769 767 -0.1 57% +5.3° 600 м - - - -
15:00 +15.2° С,С-З 7 10 20 км - облачно 769 767 -0.1 55% +6.2° 600 м - - - -
12:00 +16.8° С-З 6 10 20 км - облачно с прояснениями 769 767 -1.1 51% +6.5° 1 км - - - -
09:00 +12.7° С-З 3 - 20 км - переменная облачность 770 768 -0.2 63% +5.9° - - - - -